createdAt,value
2022-08-05T00:01:27.705Z,2.20
2022-08-05T00:03:57.029Z,2.35
2022-08-05T00:06:32.170Z,2.47
2022-08-05T00:09:00.460Z,2.38
2022-08-05T00:11:30.498Z,2.50
2022-08-05T00:14:02.197Z,2.50
2022-08-05T00:16:36.330Z,1.85
2022-08-05T00:19:15.249Z,2.10
2022-08-05T00:21:42.690Z,2.30
2022-08-05T00:24:18.926Z,2.50
2022-08-05T00:26:50.516Z,2.45
2022-08-05T00:29:18.166Z,2.28
2022-08-05T00:32:10.193Z,2.25
2022-08-05T00:34:57.050Z,2.17
2022-08-05T00:37:23.262Z,2.20
2022-08-05T00:39:57.952Z,2.10
2022-08-05T00:42:35.566Z,2.17
2022-08-05T00:45:04.244Z,2.38
2022-08-05T00:47:53.300Z,2.00
2022-08-05T00:50:17.140Z,2.22
2022-08-05T00:52:45.491Z,2.25
2022-08-05T00:55:13.291Z,2.38
2022-08-05T00:57:55.544Z,2.05
2022-08-05T01:00:26.028Z,2.45
2022-08-05T01:02:52.752Z,2.10
2022-08-05T01:05:19.544Z,2.03
2022-08-05T01:08:40.697Z,2.45
2022-08-05T01:10:41.662Z,2.25
2022-08-05T01:13:27.482Z,2.30
2022-08-05T01:16:21.051Z,2.38
2022-08-05T01:18:56.307Z,2.08
2022-08-05T01:21:45.114Z,2.42
2022-08-05T01:24:34.374Z,2.08
2022-08-05T01:27:50.690Z,2.17
2022-08-05T01:30:34.130Z,2.70
2022-08-05T01:33:02.914Z,2.33
2022-08-05T01:35:52.107Z,2.50
2022-08-05T01:38:24.857Z,2.10
2022-08-05T01:40:55.229Z,1.98
2022-08-05T01:43:24.072Z,2.13
2022-08-05T01:45:56.508Z,1.85
2022-08-05T01:48:24.131Z,1.90
2022-08-05T01:50:51.516Z,1.95
2022-08-05T01:53:54.576Z,2.00
2022-08-05T01:56:11.448Z,1.80
2022-08-05T01:58:40.818Z,1.73
2022-08-05T02:01:17.747Z,2.38
2022-08-05T02:03:53.113Z,2.40
2022-08-05T02:06:33.819Z,1.90
2022-08-05T02:09:05.085Z,1.63
2022-08-05T02:11:35.729Z,1.90
2022-08-05T02:14:12.670Z,1.77
2022-08-05T02:16:42.116Z,1.73
2022-08-05T02:19:14.240Z,1.65
2022-08-05T02:21:46.754Z,1.90
2022-08-05T02:24:18.065Z,2.10
2022-08-05T02:26:55.005Z,1.80
2022-08-05T02:29:26.215Z,2.00
2022-08-05T02:32:11.294Z,2.00
2022-08-05T02:34:37.959Z,2.00
2022-08-05T02:37:09.542Z,2.13
2022-08-05T02:39:37.027Z,2.00
2022-08-05T02:42:08.810Z,2.17
2022-08-05T02:44:37.493Z,1.92
2022-08-05T02:47:05.726Z,1.80
2022-08-05T02:49:35.653Z,1.98
2022-08-05T02:52:04.728Z,2.40
2022-08-05T02:54:35.828Z,2.08
2022-08-05T02:57:03.808Z,2.70
2022-08-05T02:59:48.073Z,1.90
2022-08-05T03:02:19.838Z,1.77
2022-08-05T03:04:48.949Z,2.35
2022-08-05T03:08:00.435Z,1.60
2022-08-05T03:10:07.245Z,2.05
2022-08-05T03:12:34.904Z,1.92
2022-08-05T03:15:01.748Z,1.70
2022-08-05T03:17:28.374Z,2.00
2022-08-05T03:19:55.124Z,2.22
2022-08-05T03:22:32.554Z,2.00
2022-08-05T03:25:11.543Z,2.17
2022-08-05T03:27:59.277Z,2.17
2022-08-05T03:30:28.697Z,2.42
2022-08-05T03:32:56.893Z,2.17
2022-08-05T03:35:23.308Z,2.28
2022-08-05T03:37:49.756Z,2.25
2022-08-05T03:40:31.113Z,2.15
2022-08-05T03:42:58.186Z,2.35
2022-08-05T03:45:24.609Z,2.67
2022-08-05T03:47:51.882Z,2.38
2022-08-05T03:50:23.607Z,2.33
2022-08-05T03:55:06.817Z,2.33
2022-08-05T03:56:09.979Z,2.33
2022-08-05T03:58:41.101Z,2.40
2022-08-05T04:01:11.311Z,2.30
2022-08-05T04:03:40.261Z,2.45
2022-08-05T04:06:27.072Z,2.22
2022-08-05T04:08:54.521Z,2.58
2022-08-05T04:11:21.125Z,2.38
2022-08-05T04:13:53.401Z,2.17
2022-08-05T04:16:24.125Z,1.92
2022-08-05T04:18:53.901Z,2.20
2022-08-05T04:22:08.824Z,2.40
2022-08-05T04:24:09.086Z,2.30
2022-08-05T04:26:45.403Z,2.15
2022-08-05T04:29:13.105Z,2.20
2022-08-05T04:31:40.790Z,2.00
2022-08-05T04:34:32.024Z,2.17
2022-08-05T04:36:54.523Z,2.22
2022-08-05T04:39:21.080Z,1.95
2022-08-05T04:41:51.197Z,2.30
2022-08-05T04:44:21.134Z,2.22
2022-08-05T04:46:55.362Z,1.83
2022-08-05T04:51:51.222Z,2.10
2022-08-05T04:54:27.211Z,2.63
2022-08-05T04:56:58.946Z,2.38
2022-08-05T04:59:38.830Z,2.47
2022-08-05T05:02:36.795Z,2.17
2022-08-05T05:05:01.666Z,2.70
2022-08-05T05:07:29.784Z,2.00
2022-08-05T05:09:58.450Z,2.20
2022-08-05T05:14:51.471Z,2.13
2022-08-05T05:17:23.372Z,2.15
2022-08-05T05:19:50.201Z,3.13
2022-08-05T05:22:23.673Z,2.50
2022-08-05T05:24:57.302Z,2.20
2022-08-05T05:27:44.286Z,2.15
2022-08-05T05:30:29.881Z,2.38
2022-08-05T05:33:01.048Z,2.78
2022-08-05T05:35:31.577Z,2.78
2022-08-05T05:38:05.488Z,2.10
2022-08-05T05:40:32.308Z,2.20
2022-08-05T05:43:00.199Z,1.80
2022-08-05T05:45:28.656Z,2.30
2022-08-05T05:48:06.575Z,1.88
2022-08-05T05:50:34.752Z,1.90
2022-08-05T05:53:22.139Z,1.90
2022-08-05T05:55:51.756Z,1.92
2022-08-05T05:58:31.803Z,1.80
2022-08-05T06:01:12.956Z,1.48
2022-08-05T06:04:00.718Z,1.80
2022-08-05T06:06:33.053Z,1.65
2022-08-05T06:09:01.266Z,1.80
2022-08-05T06:11:29.690Z,1.48
2022-08-05T06:13:56.322Z,1.58
2022-08-05T06:16:29.066Z,1.80
2022-08-05T06:19:00.787Z,1.40
2022-08-05T06:21:37.088Z,1.77
2022-08-05T06:24:12.133Z,1.83
2022-08-05T06:26:39.895Z,1.30
2022-08-05T06:29:25.207Z,1.60
2022-08-05T06:32:05.089Z,1.38
2022-08-05T06:34:48.150Z,1.30
2022-08-05T06:37:55.866Z,1.20
2022-08-05T06:40:06.708Z,1.40
2022-08-05T06:42:33.092Z,1.60
2022-08-05T06:44:59.468Z,1.40
2022-08-05T06:48:36.778Z,1.30
2022-08-05T06:50:18.404Z,1.63
2022-08-05T06:53:03.624Z,1.40
2022-08-05T06:55:36.419Z,1.38
2022-08-05T06:58:29.143Z,1.30
2022-08-05T07:00:49.756Z,1.20
2022-08-05T07:03:16.756Z,1.20
2022-08-05T07:05:43.364Z,1.20
2022-08-05T07:08:10.905Z,1.60
2022-08-05T07:10:37.972Z,1.02
2022-08-05T07:13:59.589Z,1.23
2022-08-05T07:18:00.303Z,1.35
2022-08-05T07:22:00.945Z,1.20
2022-08-05T07:24:28.737Z,1.17
2022-08-05T07:26:56.728Z,1.00
2022-08-05T07:29:25.346Z,0.90
2022-08-05T07:32:14.630Z,1.10
2022-08-05T07:34:42.377Z,1.20
2022-08-05T07:37:09.158Z,1.23
2022-08-05T07:40:04.204Z,1.13
2022-08-05T07:42:31.555Z,1.02
2022-08-05T07:45:00.787Z,1.10
2022-08-05T07:47:27.219Z,1.20
2022-08-05T07:50:08.923Z,0.85
2022-08-05T07:52:39.855Z,0.90
2022-08-05T07:55:15.922Z,0.95
2022-08-05T07:58:02.434Z,0.80
2022-08-05T08:00:29.341Z,0.95
2022-08-05T08:03:14.655Z,0.80
2022-08-05T08:05:47.577Z,0.80
2022-08-05T08:08:16.613Z,0.90
2022-08-05T08:10:49.032Z,0.80
2022-08-05T08:13:21.933Z,0.90
2022-08-05T08:16:34.531Z,0.70
2022-08-05T08:18:41.771Z,0.70
2022-08-05T08:21:17.677Z,0.70
2022-08-05T08:24:02.013Z,0.80
2022-08-05T08:26:54.426Z,0.75
2022-08-05T08:30:03.893Z,0.88
2022-08-05T08:32:10.827Z,0.70
2022-08-05T08:34:37.626Z,0.70
2022-08-05T08:37:08.508Z,0.80
2022-08-05T08:39:37.192Z,0.85
2022-08-05T08:45:49.437Z,0.75
2022-08-05T08:48:36.137Z,0.63
2022-08-05T08:52:02.339Z,0.65
2022-08-05T08:53:52.230Z,0.63
2022-08-05T08:56:22.134Z,0.60
2022-08-05T08:58:48.933Z,0.70
2022-08-05T09:01:18.135Z,0.70
2022-08-05T09:03:54.306Z,0.75
2022-08-05T09:06:29.288Z,0.80
2022-08-05T09:08:57.781Z,0.60
2022-08-05T09:11:52.007Z,0.70
2022-08-05T09:14:58.375Z,0.70
2022-08-05T09:16:57.766Z,0.68
2022-08-05T09:19:28.018Z,0.90
2022-08-05T09:22:22.228Z,0.70
2022-08-05T09:25:23.818Z,0.82
2022-08-05T09:28:05.219Z,0.70
2022-08-05T09:30:33.618Z,0.80
2022-08-05T09:33:04.767Z,0.73
2022-08-05T09:35:31.556Z,0.80
2022-08-05T09:38:17.325Z,0.90
2022-08-05T09:40:52.651Z,0.80
2022-08-05T09:43:26.279Z,0.70
2022-08-05T09:46:07.854Z,0.80
2022-08-05T09:48:35.665Z,0.73
2022-08-05T09:51:04.036Z,0.60
2022-08-05T09:53:53.689Z,0.70
2022-08-05T09:56:29.030Z,0.60
2022-08-05T09:58:56.282Z,0.85
2022-08-05T10:01:32.483Z,0.70
2022-08-05T10:04:03.073Z,0.63
2022-08-05T10:06:30.963Z,0.60
2022-08-05T10:09:10.744Z,1.05
2022-08-05T10:11:54.396Z,0.70
2022-08-05T10:14:26.890Z,0.40
2022-08-05T10:16:56.190Z,0.63
2022-08-05T10:20:03.032Z,0.70
2022-08-05T10:22:15.626Z,0.63
2022-08-05T10:24:55.942Z,0.80
2022-08-05T10:27:26.344Z,0.80
2022-08-05T10:31:20.185Z,0.60
2022-08-05T10:33:01.311Z,0.75
2022-08-05T10:35:33.847Z,0.52
2022-08-05T10:38:08.484Z,0.60
2022-08-05T10:40:44.868Z,0.57
2022-08-05T10:43:31.091Z,0.70
2022-08-05T10:46:06.593Z,0.70
2022-08-05T10:48:38.432Z,0.70
2022-08-05T10:51:23.023Z,0.70
2022-08-05T10:53:58.343Z,0.60
2022-08-05T10:56:29.031Z,0.93
2022-08-05T10:58:55.318Z,0.60
2022-08-05T11:01:54.674Z,0.52
2022-08-05T11:04:21.349Z,0.70
2022-08-05T11:06:57.482Z,1.05
2022-08-05T11:09:39.237Z,0.60
2022-08-05T11:12:30.456Z,0.60
2022-08-05T11:15:11.730Z,0.50
2022-08-05T11:17:58.676Z,0.70
2022-08-05T11:20:32.619Z,0.60
2022-08-05T11:23:02.192Z,0.75
2022-08-05T11:26:04.486Z,1.45
2022-08-05T11:28:22.066Z,0.70
2022-08-05T11:30:55.416Z,0.73
2022-08-05T11:33:44.053Z,0.75
2022-08-05T11:36:14.371Z,0.68
2022-08-05T11:38:45.983Z,0.63
2022-08-05T11:41:56.087Z,0.52
2022-08-05T11:44:21.538Z,0.50
2022-08-05T11:47:10.440Z,0.70
2022-08-05T11:49:42.899Z,0.60
2022-08-05T11:52:11.978Z,0.80
2022-08-05T11:54:40.730Z,0.60
2022-08-05T11:57:24.541Z,0.90
2022-08-05T11:59:52.681Z,0.63
2022-08-05T12:02:31.296Z,0.70
2022-08-05T12:04:59.999Z,0.60
2022-08-05T12:08:04.395Z,0.57
2022-08-05T12:10:17.954Z,0.70
2022-08-05T12:12:46.662Z,0.70
2022-08-05T12:15:37.846Z,0.70
2022-08-05T12:18:10.886Z,0.80
2022-08-05T12:20:38.834Z,0.50
2022-08-05T12:23:12.213Z,0.80
2022-08-05T12:25:56.395Z,0.77
2022-08-05T12:28:30.991Z,0.68
2022-08-05T12:30:58.009Z,0.65
2022-08-05T12:33:36.582Z,0.70
2022-08-05T12:36:08.010Z,0.70
2022-08-05T12:38:36.729Z,0.80
2022-08-05T12:41:10.943Z,0.70
2022-08-05T12:43:52.580Z,0.70
2022-08-05T12:46:28.831Z,0.85
2022-08-05T12:49:05.893Z,0.70
2022-08-05T12:52:10.130Z,0.87
2022-08-05T12:54:35.357Z,0.80
2022-08-05T12:57:04.731Z,0.68
2022-08-05T13:01:58.568Z,0.60
2022-08-05T13:02:35.946Z,0.70
2022-08-05T13:05:05.988Z,0.88
2022-08-05T13:07:57.421Z,0.70
2022-08-05T13:10:19.553Z,0.60
2022-08-05T13:12:51.040Z,0.95
2022-08-05T13:15:41.997Z,0.70
2022-08-05T13:18:18.913Z,0.75
2022-08-05T13:20:47.364Z,0.90
2022-08-05T13:23:16.384Z,0.90
2022-08-05T13:25:52.602Z,0.70
2022-08-05T13:28:26.520Z,0.90
2022-08-05T13:30:53.393Z,0.70
2022-08-05T13:34:22.573Z,1.00
2022-08-05T13:36:09.730Z,0.90
2022-08-05T13:38:42.540Z,0.85
2022-08-05T13:41:12.354Z,0.90
2022-08-05T13:43:45.266Z,1.00
2022-08-05T13:46:38.050Z,0.98
2022-08-05T13:49:11.843Z,0.73
2022-08-05T13:51:46.158Z,0.90
2022-08-05T13:54:15.533Z,1.10
2022-08-05T13:56:45.548Z,0.80
2022-08-05T13:59:24.510Z,0.90
2022-08-05T14:01:57.425Z,0.80
2022-08-05T14:04:49.566Z,0.80
2022-08-05T14:07:26.380Z,0.80
2022-08-05T14:10:09.263Z,0.88
2022-08-05T14:12:36.416Z,0.88
2022-08-05T14:15:05.862Z,0.80
2022-08-05T14:17:49.673Z,0.82
2022-08-05T14:20:17.441Z,0.90
2022-08-05T14:22:50.168Z,0.70
2022-08-05T14:25:21.512Z,0.95
2022-08-05T14:27:49.476Z,0.80
2022-08-05T14:30:20.380Z,0.70
2022-08-05T14:32:47.774Z,1.00
2022-08-05T14:35:14.233Z,0.70
2022-08-05T14:37:48.177Z,0.70
2022-08-05T14:40:16.788Z,0.70
2022-08-05T14:42:43.586Z,0.90
2022-08-05T14:45:10.231Z,1.33
2022-08-05T14:48:04.116Z,1.60
2022-08-05T14:50:23.207Z,1.00
2022-08-05T14:52:56.902Z,0.60
2022-08-05T14:55:25.778Z,0.75
2022-08-05T14:57:56.512Z,0.98
2022-08-05T15:00:28.050Z,0.80
2022-08-05T15:02:55.050Z,0.80
2022-08-05T15:05:21.886Z,0.60
2022-08-05T15:08:08.703Z,0.80
2022-08-05T15:10:38.745Z,0.60
2022-08-05T15:13:05.987Z,0.60
2022-08-05T15:15:54.572Z,0.60
2022-08-05T15:18:22.805Z,0.77
2022-08-05T15:20:49.544Z,0.60
2022-08-05T15:23:18.141Z,0.90
2022-08-05T15:25:52.265Z,0.90
2022-08-05T15:28:23.017Z,1.15
2022-08-05T15:30:55.769Z,1.00
2022-08-05T15:34:04.738Z,0.80
2022-08-05T15:36:17.329Z,0.80
2022-08-05T15:38:51.178Z,0.80
2022-08-05T15:41:58.235Z,0.90
2022-08-05T15:44:24.415Z,0.80
2022-08-05T15:46:52.686Z,0.80
2022-08-05T15:49:48.289Z,0.70
2022-08-05T15:52:16.957Z,0.77
2022-08-05T15:54:56.525Z,0.85
2022-08-05T15:57:23.233Z,1.00
2022-08-05T15:59:52.826Z,1.00
2022-08-05T16:02:25.194Z,3.90
2022-08-05T16:04:52.798Z,2.85
2022-08-05T16:07:21.353Z,0.95
2022-08-05T16:09:49.755Z,0.77
2022-08-05T16:12:16.766Z,0.70
2022-08-05T16:14:46.297Z,1.00
2022-08-05T16:17:13.066Z,0.90
2022-08-05T16:20:04.221Z,0.70
2022-08-05T16:22:27.867Z,0.90
2022-08-05T16:25:00.514Z,0.90
2022-08-05T16:27:46.889Z,0.73
2022-08-05T16:30:25.839Z,0.77
2022-08-05T16:32:54.075Z,0.70
2022-08-05T16:35:27.646Z,0.63
2022-08-05T16:38:15.643Z,0.70
2022-08-05T16:40:41.909Z,0.70
2022-08-05T16:43:16.402Z,0.80
2022-08-05T16:46:06.372Z,0.73
2022-08-05T16:48:33.899Z,0.80
2022-08-05T16:51:02.010Z,1.08
2022-08-05T16:54:02.046Z,0.80
2022-08-05T16:56:17.150Z,0.60
2022-08-05T16:58:43.744Z,0.85
2022-08-05T17:01:10.610Z,0.90
2022-08-05T17:03:37.683Z,0.70
2022-08-05T17:06:05.742Z,0.98
2022-08-05T17:08:33.483Z,0.80
2022-08-05T17:11:05.908Z,0.90
2022-08-05T17:13:37.175Z,1.42
2022-08-05T17:16:27.974Z,0.70
2022-08-05T17:18:51.424Z,0.80
2022-08-05T17:21:18.930Z,0.77
2022-08-05T17:24:05.054Z,0.70
2022-08-05T17:26:32.543Z,0.90
2022-08-05T17:28:59.549Z,1.08
2022-08-05T17:31:41.276Z,1.20
2022-08-05T17:34:18.061Z,0.80
2022-08-05T17:36:44.640Z,1.02
2022-08-05T17:39:23.777Z,0.90
2022-08-05T17:42:17.718Z,0.85
2022-08-05T17:44:38.737Z,0.80
2022-08-05T17:47:05.376Z,0.93
2022-08-05T17:50:00.581Z,1.42
2022-08-05T17:52:20.044Z,0.95
2022-08-05T17:54:51.174Z,1.27
2022-08-05T17:57:17.576Z,1.00
2022-08-05T17:59:49.010Z,1.00
2022-08-05T18:02:30.724Z,0.85
2022-08-05T18:04:57.645Z,0.90
2022-08-05T18:07:25.252Z,0.95
2022-08-05T18:10:09.746Z,1.05
2022-08-05T18:12:37.069Z,0.93
2022-08-05T18:15:04.914Z,1.00
2022-08-05T18:18:00.202Z,1.10
2022-08-05T18:20:19.445Z,1.00
2022-08-05T18:22:57.554Z,1.30
2022-08-05T18:25:25.156Z,1.30
2022-08-05T18:27:59.046Z,1.45
2022-08-05T18:30:30.502Z,1.10
2022-08-05T18:33:01.491Z,1.10
2022-08-05T18:35:59.898Z,1.08
2022-08-05T18:38:18.951Z,0.95
2022-08-05T18:41:58.005Z,1.10
2022-08-05T18:43:42.636Z,1.20
2022-08-05T18:46:11.281Z,1.52
2022-08-05T18:48:41.581Z,1.10
2022-08-05T18:52:04.188Z,0.90
2022-08-05T18:54:17.462Z,1.40
2022-08-05T18:59:50.655Z,1.00
2022-08-05T19:02:27.493Z,1.45
2022-08-05T19:05:02.396Z,1.02
2022-08-05T19:07:53.585Z,1.10
2022-08-05T19:10:28.261Z,1.05
2022-08-05T19:13:02.475Z,1.13
2022-08-05T19:15:59.927Z,1.40
2022-08-05T19:18:22.103Z,1.20
2022-08-05T19:20:49.318Z,1.30
2022-08-05T19:24:06.053Z,1.27
2022-08-05T19:26:02.959Z,1.10
2022-08-05T19:28:30.406Z,1.40
2022-08-05T19:31:18.035Z,1.70
2022-08-05T19:33:56.595Z,1.60
2022-08-05T19:36:26.996Z,1.45
2022-08-05T19:39:01.015Z,1.27
2022-08-05T19:42:05.620Z,1.00
2022-08-05T19:44:15.222Z,1.08
2022-08-05T19:49:08.410Z,1.20
2022-08-05T19:52:04.937Z,1.08
2022-08-05T19:54:32.712Z,1.27
2022-08-05T19:56:59.445Z,1.48
2022-08-05T20:00:01.047Z,1.92
2022-08-05T20:02:14.145Z,1.40
2022-08-05T20:04:42.787Z,1.20
2022-08-05T20:07:10.403Z,1.70
2022-08-05T20:09:54.433Z,1.90
2022-08-05T20:12:23.984Z,1.67
2022-08-05T20:14:52.225Z,1.30
2022-08-05T20:17:19.822Z,1.40
2022-08-05T20:19:50.246Z,1.40
2022-08-05T20:22:16.845Z,1.50
2022-08-05T20:27:11.205Z,1.40
2022-08-05T20:29:38.296Z,1.10
2022-08-05T20:32:08.538Z,1.30
2022-08-05T20:34:36.814Z,1.25
2022-08-05T20:39:36.355Z,1.40
2022-08-05T20:42:03.738Z,1.30
2022-08-05T20:44:31.126Z,1.77
2022-08-05T20:47:01.442Z,1.90
2022-08-05T20:49:28.113Z,1.40
2022-08-05T20:51:55.548Z,1.35
2022-08-05T20:54:58.903Z,1.20
2022-08-05T20:57:14.884Z,1.02
2022-08-05T21:00:21.296Z,1.98
2022-08-05T21:02:52.131Z,1.48
2022-08-05T21:05:18.709Z,1.63
2022-08-05T21:07:52.300Z,1.45
2022-08-05T21:10:19.031Z,1.33
2022-08-05T21:15:24.071Z,1.40
2022-08-05T21:18:00.457Z,1.60
2022-08-05T21:22:59.572Z,1.50
2022-08-05T21:25:33.795Z,1.60
2022-08-05T21:28:01.805Z,1.60
2022-08-05T21:30:28.311Z,1.10
2022-08-05T21:32:55.215Z,1.30
2022-08-05T21:37:57.194Z,0.90
2022-08-05T21:40:24.166Z,1.30
2022-08-05T21:42:54.179Z,1.15
2022-08-05T21:45:25.057Z,1.00
2022-08-05T21:48:09.242Z,0.90
2022-08-05T21:50:36.664Z,1.42
2022-08-05T21:53:16.074Z,1.00
2022-08-05T21:56:04.849Z,1.50
2022-08-05T21:58:31.467Z,1.30
2022-08-05T22:00:58.622Z,1.15
2022-08-05T22:03:52.768Z,1.00
2022-08-05T22:06:11.998Z,1.27
2022-08-05T22:08:42.468Z,1.20
2022-08-05T22:11:11.038Z,1.02
2022-08-05T22:14:33.608Z,1.27
2022-08-05T22:16:42.017Z,1.40
2022-08-05T22:19:56.072Z,1.17
2022-08-05T22:22:01.390Z,1.10
2022-08-05T22:28:11.378Z,1.25
2022-08-05T22:30:23.338Z,1.60
2022-08-05T22:32:49.775Z,1.80
2022-08-05T22:35:16.178Z,1.40
2022-08-05T22:37:59.189Z,1.50
2022-08-05T22:40:26.327Z,1.52
2022-08-05T22:45:26.139Z,1.25
2022-08-05T22:47:56.952Z,1.50
2022-08-05T22:50:27.856Z,1.90
2022-08-05T22:52:54.847Z,1.40
2022-08-05T22:55:22.130Z,1.50
2022-08-05T22:57:49.761Z,1.90
2022-08-05T23:00:18.333Z,1.55
2022-08-05T23:02:48.067Z,1.30
2022-08-05T23:05:15.534Z,1.40
2022-08-05T23:07:44.887Z,1.40
2022-08-05T23:10:12.226Z,1.52
2022-08-05T23:12:38.710Z,1.20
2022-08-05T23:15:08.891Z,1.60
2022-08-05T23:17:37.887Z,1.50
2022-08-05T23:20:23.562Z,1.50
2022-08-05T23:22:55.689Z,1.60
2022-08-05T23:25:51.131Z,1.42
2022-08-05T23:28:09.569Z,1.58
2022-08-05T23:30:40.269Z,1.45
2022-08-05T23:33:16.300Z,1.55
2022-08-05T23:35:49.593Z,1.63
2022-08-05T23:38:16.168Z,1.73
2022-08-05T23:40:49.932Z,1.60
2022-08-05T23:43:24.275Z,1.73
2022-08-05T23:45:51.169Z,2.20
2022-08-05T23:48:17.587Z,1.52
2022-08-05T23:50:46.203Z,1.75
2022-08-05T23:53:22.484Z,2.20
2022-08-05T23:55:49.739Z,1.73
2022-08-05T23:58:31.375Z,1.65
